createdAt,value
2022-12-20T00:01:56.331Z,5.25
2022-12-20T00:04:24.379Z,4.60
2022-12-20T00:06:52.446Z,5.13
2022-12-20T00:09:21.841Z,4.72
2022-12-20T00:11:49.852Z,5.30
2022-12-20T00:14:19.421Z,5.20
2022-12-20T00:16:47.429Z,4.90
2022-12-20T00:19:15.391Z,4.78
2022-12-20T00:21:43.389Z,5.10
2022-12-20T00:24:12.022Z,4.60
2022-12-20T00:26:40.101Z,5.32
2022-12-20T00:29:08.728Z,4.78
2022-12-20T00:31:38.857Z,5.20
2022-12-20T00:34:07.054Z,4.82
2022-12-20T00:36:35.342Z,4.90
2022-12-20T00:39:03.419Z,4.68
2022-12-20T00:41:33.120Z,5.40
2022-12-20T00:44:01.675Z,4.80
2022-12-20T00:46:29.946Z,4.53
2022-12-20T00:48:59.282Z,4.60
2022-12-20T00:51:29.694Z,4.50
2022-12-20T00:53:58.024Z,5.15
2022-12-20T00:56:26.375Z,4.80
2022-12-20T00:58:54.979Z,4.32
2022-12-20T01:01:25.877Z,4.70
2022-12-20T01:03:55.026Z,4.28
2022-12-20T01:06:26.015Z,4.80
2022-12-20T01:08:54.374Z,4.30
2022-12-20T01:11:23.871Z,4.60
2022-12-20T01:13:53.602Z,4.60
2022-12-20T01:16:24.821Z,4.90
2022-12-20T01:18:53.653Z,4.97
2022-12-20T01:21:23.503Z,4.50
2022-12-20T01:23:53.332Z,4.60
2022-12-20T01:26:23.518Z,4.93
2022-12-20T01:28:54.965Z,5.07
2022-12-20T01:31:24.123Z,4.40
2022-12-20T01:33:53.444Z,4.47
2022-12-20T01:36:25.273Z,4.18
2022-12-20T01:38:57.758Z,4.22
2022-12-20T01:41:25.778Z,4.60
2022-12-20T01:43:55.895Z,4.33
2022-12-20T01:46:25.975Z,4.03
2022-12-20T01:48:57.663Z,4.10
2022-12-20T01:51:26.598Z,4.35
2022-12-20T01:53:59.474Z,4.20
2022-12-20T01:56:27.515Z,4.60
2022-12-20T01:58:57.167Z,4.03
2022-12-20T02:01:26.720Z,4.30
2022-12-20T02:03:57.831Z,4.00
2022-12-20T02:06:28.210Z,4.53
2022-12-20T02:09:01.677Z,4.90
2022-12-20T02:11:56.891Z,4.45
2022-12-20T02:14:36.535Z,4.33
2022-12-20T02:17:11.566Z,3.70
2022-12-20T02:20:11.183Z,4.70
2022-12-20T02:22:54.171Z,4.30
2022-12-20T02:25:53.076Z,4.05
2022-12-20T02:28:44.669Z,4.40
2022-12-20T02:31:17.505Z,4.70
2022-12-20T02:33:48.723Z,5.40
2022-12-20T02:36:18.005Z,4.50
2022-12-20T02:38:46.738Z,4.10
2022-12-20T02:41:21.129Z,4.82
2022-12-20T02:44:12.274Z,4.50
2022-12-20T02:46:42.297Z,4.50
2022-12-20T02:49:13.308Z,4.90
2022-12-20T02:51:43.963Z,4.60
2022-12-20T02:54:12.047Z,4.25
2022-12-20T02:56:43.918Z,4.97
2022-12-20T02:59:17.517Z,4.57
2022-12-20T03:01:49.771Z,4.03
2022-12-20T03:04:19.019Z,4.30
2022-12-20T03:06:58.575Z,4.53
2022-12-20T03:09:26.551Z,4.30
2022-12-20T03:11:55.013Z,4.67
2022-12-20T03:14:23.287Z,4.50
2022-12-20T03:16:52.767Z,4.35
2022-12-20T03:19:20.963Z,4.20
2022-12-20T03:21:49.183Z,4.70
2022-12-20T03:24:17.564Z,5.03
2022-12-20T03:26:45.548Z,4.53
2022-12-20T03:29:13.640Z,4.82
2022-12-20T03:31:41.941Z,4.22
2022-12-20T03:34:11.273Z,5.00
2022-12-20T03:36:39.310Z,5.20
2022-12-20T03:39:07.237Z,4.13
2022-12-20T03:41:35.261Z,3.90
2022-12-20T03:44:03.214Z,4.68
2022-12-20T03:46:31.387Z,4.80
2022-12-20T03:49:00.397Z,3.90
2022-12-20T03:51:29.739Z,4.35
2022-12-20T03:53:57.730Z,4.40
2022-12-20T03:56:25.756Z,5.00
2022-12-20T03:58:53.638Z,3.85
2022-12-20T04:01:23.796Z,4.30
2022-12-20T04:03:51.993Z,4.30
2022-12-20T04:06:21.472Z,4.10
2022-12-20T04:08:51.056Z,4.40
2022-12-20T04:11:19.233Z,4.30
2022-12-20T04:13:48.627Z,4.03
2022-12-20T04:16:18.868Z,4.93
2022-12-20T04:18:46.886Z,4.70
2022-12-20T04:21:15.693Z,3.80
2022-12-20T04:23:44.364Z,3.80
2022-12-20T04:26:14.342Z,4.00
2022-12-20T04:28:42.328Z,4.25
2022-12-20T04:31:10.637Z,4.45
2022-12-20T04:33:38.670Z,3.80
2022-12-20T04:36:07.168Z,4.20
2022-12-20T04:38:35.350Z,3.90
2022-12-20T04:41:03.313Z,4.10
2022-12-20T04:43:32.676Z,4.05
2022-12-20T04:46:00.746Z,4.27
2022-12-20T04:51:18.181Z,4.05
2022-12-20T04:53:48.367Z,4.20
2022-12-20T04:56:21.115Z,3.90
2022-12-20T04:58:52.385Z,4.93
2022-12-20T05:01:20.989Z,3.92
2022-12-20T05:03:49.547Z,4.00
2022-12-20T05:06:18.748Z,4.53
2022-12-20T05:08:46.709Z,4.35
2022-12-20T05:11:15.089Z,4.25
2022-12-20T05:13:43.173Z,4.77
2022-12-20T05:16:12.677Z,4.83
2022-12-20T05:18:48.168Z,4.10
2022-12-20T05:21:34.588Z,5.03
2022-12-20T05:24:19.965Z,5.05
2022-12-20T05:26:47.919Z,4.75
2022-12-20T05:29:16.807Z,4.47
2022-12-20T05:31:46.243Z,4.30
2022-12-20T05:34:14.280Z,5.20
2022-12-20T05:36:42.264Z,4.40
2022-12-20T05:39:11.718Z,4.32
2022-12-20T05:41:40.467Z,4.13
2022-12-20T05:44:08.885Z,4.70
2022-12-20T05:46:37.032Z,5.05
2022-12-20T05:49:06.652Z,4.22
2022-12-20T05:51:35.410Z,4.22
2022-12-20T05:54:03.504Z,4.33
2022-12-20T05:56:31.482Z,5.00
2022-12-20T05:58:59.922Z,4.57
2022-12-20T06:01:27.998Z,3.47
2022-12-20T06:03:56.037Z,3.80
2022-12-20T06:06:25.513Z,3.85
2022-12-20T06:08:53.512Z,4.00
2022-12-20T06:11:27.738Z,3.90
2022-12-20T06:13:57.750Z,3.88
2022-12-20T06:16:26.046Z,4.00
2022-12-20T06:18:54.224Z,4.35
2022-12-20T06:21:22.446Z,4.03
2022-12-20T06:23:52.009Z,4.20
2022-12-20T06:26:20.239Z,3.90
2022-12-20T06:28:52.483Z,3.83
2022-12-20T06:31:20.753Z,4.38
2022-12-20T06:33:48.929Z,4.30
2022-12-20T06:36:17.124Z,4.90
2022-12-20T06:38:45.285Z,4.70
2022-12-20T06:41:14.794Z,4.70
2022-12-20T06:43:42.929Z,4.13
2022-12-20T06:46:11.975Z,4.30
2022-12-20T06:48:40.214Z,4.90
2022-12-20T06:51:08.429Z,4.47
2022-12-20T06:53:36.687Z,4.30
2022-12-20T06:56:05.175Z,4.97
2022-12-20T06:58:34.682Z,4.15
2022-12-20T07:01:02.829Z,5.03
2022-12-20T07:03:31.117Z,4.28
2022-12-20T07:05:59.520Z,4.20
2022-12-20T07:08:28.422Z,3.90
2022-12-20T07:10:56.986Z,4.28
2022-12-20T07:13:26.152Z,4.25
2022-12-20T07:16:03.031Z,4.10
2022-12-20T07:18:32.794Z,4.55
2022-12-20T07:21:01.663Z,4.72
2022-12-20T07:23:30.024Z,3.63
2022-12-20T07:25:59.576Z,4.47
2022-12-20T07:28:28.895Z,4.60
2022-12-20T07:31:01.359Z,4.68
2022-12-20T07:33:31.055Z,4.00
2022-12-20T07:36:02.539Z,4.10
2022-12-20T07:38:31.054Z,4.18
2022-12-20T07:40:59.244Z,4.47
2022-12-20T07:43:27.415Z,3.80
2022-12-20T07:45:57.206Z,3.90
2022-12-20T07:48:25.793Z,3.85
2022-12-20T07:50:59.177Z,4.10
2022-12-20T07:53:29.124Z,4.60
2022-12-20T07:55:58.501Z,4.43
2022-12-20T07:58:27.532Z,4.10
2022-12-20T08:00:56.144Z,4.07
2022-12-20T08:03:29.254Z,4.20
2022-12-20T08:06:03.827Z,4.00
2022-12-20T08:08:34.039Z,3.50
2022-12-20T08:11:03.611Z,4.40
2022-12-20T08:13:33.866Z,3.97
2022-12-20T08:16:02.060Z,4.20
2022-12-20T08:18:30.326Z,4.50
2022-12-20T08:21:01.238Z,4.72
2022-12-20T08:23:29.404Z,3.67
2022-12-20T08:25:57.890Z,3.80
2022-12-20T08:28:26.017Z,4.10
2022-12-20T08:30:54.543Z,4.67
2022-12-20T08:33:22.735Z,4.70
2022-12-20T08:36:00.233Z,3.80
2022-12-20T08:38:29.966Z,3.63
2022-12-20T08:41:02.823Z,3.00
2022-12-20T08:43:31.221Z,4.57
2022-12-20T08:45:59.786Z,3.80
2022-12-20T08:48:28.333Z,3.47
2022-12-20T08:50:57.667Z,3.40
2022-12-20T08:53:27.260Z,3.90
2022-12-20T08:55:55.460Z,3.25
2022-12-20T08:58:23.575Z,4.30
2022-12-20T09:00:51.789Z,3.17
2022-12-20T09:03:20.057Z,4.13
2022-12-20T09:05:48.874Z,3.70
2022-12-20T09:08:17.602Z,3.55
2022-12-20T09:10:47.176Z,3.72
2022-12-20T09:13:15.307Z,3.80
2022-12-20T09:15:45.188Z,3.58
2022-12-20T09:18:13.362Z,3.90
2022-12-20T09:20:45.424Z,3.70
2022-12-20T09:23:13.632Z,4.50
2022-12-20T09:25:41.760Z,4.80
2022-12-20T09:28:11.284Z,3.90
2022-12-20T09:30:39.473Z,3.60
2022-12-20T09:33:10.383Z,3.13
2022-12-20T09:35:45.233Z,3.63
2022-12-20T09:38:13.724Z,4.40
2022-12-20T09:40:46.892Z,3.78
2022-12-20T09:43:18.122Z,3.60
2022-12-20T09:45:48.567Z,3.38
2022-12-20T09:48:21.108Z,4.10
2022-12-20T09:51:03.427Z,4.80
2022-12-20T09:53:41.491Z,4.32
2022-12-20T09:56:15.074Z,3.97
2022-12-20T09:59:00.397Z,3.95
2022-12-20T10:01:38.034Z,4.65
2022-12-20T10:04:22.471Z,4.40
2022-12-20T10:07:01.550Z,4.43
2022-12-20T10:09:53.199Z,4.30
2022-12-20T10:12:33.016Z,4.10
2022-12-20T10:15:22.196Z,4.70
2022-12-20T10:18:16.432Z,4.70
2022-12-20T10:20:55.016Z,4.20
2022-12-20T10:23:33.150Z,4.13
2022-12-20T10:26:02.442Z,4.10
2022-12-20T10:28:32.289Z,4.05
2022-12-20T10:31:04.458Z,4.00
2022-12-20T10:33:33.747Z,4.22
2022-12-20T10:36:20.857Z,3.97
2022-12-20T10:38:50.947Z,4.90
2022-12-20T10:41:22.226Z,4.35
2022-12-20T10:43:56.339Z,4.00
2022-12-20T10:46:37.137Z,4.85
2022-12-20T10:49:37.992Z,4.20
2022-12-20T10:52:14.336Z,4.30
2022-12-20T10:54:43.713Z,4.73
2022-12-20T10:57:20.153Z,4.70
2022-12-20T10:59:54.106Z,4.45
2022-12-20T11:02:34.692Z,4.60
2022-12-20T11:05:24.166Z,5.03
2022-12-20T11:10:46.097Z,4.72
2022-12-20T11:13:23.413Z,5.20
2022-12-20T11:15:55.517Z,5.10
2022-12-20T11:18:33.773Z,4.40
2022-12-20T11:21:25.921Z,5.57
2022-12-20T11:24:03.253Z,5.20
2022-12-20T11:26:46.217Z,5.03
2022-12-20T11:29:34.127Z,5.18
2022-12-20T11:32:10.405Z,4.65
2022-12-20T11:34:47.287Z,4.60
2022-12-20T11:37:21.497Z,5.80
2022-12-20T11:40:05.431Z,5.28
2022-12-20T11:42:50.013Z,4.88
2022-12-20T11:45:28.224Z,4.93
2022-12-20T11:48:25.612Z,4.80
2022-12-20T11:51:24.487Z,5.50
2022-12-20T11:53:58.628Z,5.40
2022-12-20T11:56:31.241Z,5.03
2022-12-20T11:59:03.609Z,4.80
2022-12-20T12:01:37.370Z,4.97
2022-12-20T12:04:13.026Z,5.30
2022-12-20T12:06:47.103Z,4.70
2022-12-20T12:09:25.106Z,4.95
2022-12-20T12:12:07.803Z,4.50
2022-12-20T12:14:54.281Z,4.88
2022-12-20T12:17:28.466Z,5.10
2022-12-20T12:20:10.487Z,5.38
2022-12-20T12:22:41.704Z,4.20
2022-12-20T12:25:16.649Z,4.95
2022-12-20T12:27:44.881Z,4.35
2022-12-20T12:30:15.088Z,5.10
2022-12-20T12:32:47.516Z,4.60
2022-12-20T12:35:39.383Z,4.90
2022-12-20T12:38:28.695Z,4.80
2022-12-20T12:41:17.580Z,4.97
2022-12-20T12:43:52.692Z,5.70
2022-12-20T12:46:27.237Z,5.10
2022-12-20T12:49:00.320Z,5.00
2022-12-20T12:51:32.874Z,5.30
2022-12-20T12:54:17.804Z,4.87
2022-12-20T12:56:47.672Z,5.55
2022-12-20T12:59:51.323Z,5.95
2022-12-20T13:02:37.357Z,5.70
2022-12-20T13:05:32.525Z,5.60
2022-12-20T13:08:00.898Z,5.70
2022-12-20T13:11:02.525Z,6.20
2022-12-20T13:13:30.687Z,6.60
2022-12-20T13:16:14.266Z,6.40
2022-12-20T13:19:11.896Z,5.88
2022-12-20T13:21:43.186Z,5.90
2022-12-20T13:24:53.206Z,6.00
2022-12-20T13:27:40.509Z,7.07
2022-12-20T13:30:30.578Z,5.65
2022-12-20T13:33:23.409Z,5.53
2022-12-20T13:36:00.582Z,5.50
2022-12-20T13:38:55.860Z,5.40
2022-12-20T13:41:45.090Z,5.72
2022-12-20T13:44:36.138Z,5.77
2022-12-20T13:47:20.280Z,5.73
2022-12-20T13:49:48.413Z,4.80
2022-12-20T13:52:28.452Z,5.10
2022-12-20T13:55:00.758Z,6.03
2022-12-20T13:57:33.025Z,5.30
2022-12-20T14:00:07.849Z,4.80
2022-12-20T14:02:42.428Z,4.97
2022-12-20T14:05:18.254Z,6.10
2022-12-20T14:07:49.661Z,5.80
2022-12-20T14:10:24.186Z,5.70
2022-12-20T14:12:53.199Z,5.15
2022-12-20T14:15:31.479Z,6.00
2022-12-20T14:18:06.787Z,5.75
2022-12-20T14:20:36.250Z,5.75
2022-12-20T14:23:06.797Z,5.53
2022-12-20T14:25:43.582Z,6.90
2022-12-20T14:28:26.737Z,6.50
2022-12-20T14:30:57.934Z,6.05
2022-12-20T14:33:31.589Z,6.00
2022-12-20T14:36:08.258Z,6.67
2022-12-20T14:38:36.384Z,5.75
2022-12-20T14:41:04.608Z,6.30
2022-12-20T14:43:37.812Z,6.50
2022-12-20T14:46:22.593Z,6.60
2022-12-20T14:49:05.929Z,7.53
2022-12-20T14:51:34.120Z,7.10
2022-12-20T14:54:02.352Z,6.70
2022-12-20T14:56:32.349Z,7.10
2022-12-20T14:59:12.397Z,6.50
2022-12-20T15:01:44.155Z,6.70
2022-12-20T15:04:31.428Z,7.30
2022-12-20T15:06:59.843Z,7.53
2022-12-20T15:09:28.335Z,7.40
2022-12-20T15:11:57.958Z,7.80
2022-12-20T15:14:37.541Z,7.10
2022-12-20T15:17:12.037Z,7.85
2022-12-20T15:19:42.454Z,8.93
2022-12-20T15:22:16.771Z,8.20
2022-12-20T15:24:44.936Z,7.32
2022-12-20T15:27:14.962Z,7.97
2022-12-20T15:29:43.565Z,8.00
2022-12-20T15:32:22.107Z,8.07
2022-12-20T15:34:50.384Z,8.63
2022-12-20T15:37:19.287Z,7.27
2022-12-20T15:39:47.537Z,8.53
2022-12-20T15:42:18.696Z,8.10
2022-12-20T15:44:47.390Z,9.18
2022-12-20T15:47:17.972Z,8.88
2022-12-20T15:49:50.178Z,7.47
2022-12-20T15:52:22.038Z,8.13
2022-12-20T15:54:50.703Z,7.40
2022-12-20T15:57:18.811Z,8.52
2022-12-20T16:00:01.171Z,8.95
2022-12-20T16:02:33.385Z,9.98
2022-12-20T16:05:01.768Z,9.68
2022-12-20T16:07:29.958Z,8.60
2022-12-20T16:09:58.093Z,9.63
2022-12-20T16:12:30.609Z,9.40
2022-12-20T16:14:58.859Z,10.13
2022-12-20T16:17:27.225Z,9.13
2022-12-20T16:19:56.806Z,10.13
2022-12-20T16:22:26.461Z,9.45
2022-12-20T16:24:54.786Z,9.87
2022-12-20T16:27:22.928Z,9.00
2022-12-20T16:29:51.377Z,9.98
2022-12-20T16:32:22.545Z,9.82
2022-12-20T16:34:51.336Z,9.55
2022-12-20T16:37:20.967Z,9.80
2022-12-20T16:39:49.385Z,10.70
2022-12-20T16:42:22.265Z,10.57
2022-12-20T16:44:53.400Z,10.43
2022-12-20T16:47:21.775Z,9.90
2022-12-20T16:49:53.166Z,11.77
2022-12-20T16:52:23.883Z,10.25
2022-12-20T16:54:52.218Z,10.77
2022-12-20T16:57:21.317Z,11.45
2022-12-20T16:59:49.651Z,10.10
2022-12-20T17:02:25.679Z,9.53
2022-12-20T17:04:53.946Z,10.40
2022-12-20T17:07:23.507Z,10.77
2022-12-20T17:09:51.973Z,10.05
2022-12-20T17:12:22.127Z,10.90
2022-12-20T17:14:50.584Z,10.63
2022-12-20T17:17:18.718Z,9.65
2022-12-20T17:19:46.993Z,10.27
2022-12-20T17:25:04.095Z,11.18
2022-12-20T17:27:32.366Z,10.32
2022-12-20T17:30:00.600Z,11.60
2022-12-20T17:32:28.825Z,11.65
2022-12-20T17:34:59.256Z,10.50
2022-12-20T17:37:27.919Z,12.82
2022-12-20T17:39:56.065Z,12.30
2022-12-20T17:42:30.903Z,12.40
2022-12-20T17:45:00.041Z,14.10
2022-12-20T17:47:28.248Z,14.13
2022-12-20T17:49:56.350Z,12.55
2022-12-20T17:52:24.715Z,14.23
2022-12-20T17:54:52.828Z,13.90
2022-12-20T17:57:20.943Z,14.38
2022-12-20T17:59:50.261Z,14.70
2022-12-20T18:02:23.381Z,12.48
2022-12-20T18:04:51.951Z,13.77
2022-12-20T18:07:20.528Z,14.67
2022-12-20T18:09:49.133Z,15.15
2022-12-20T18:12:17.285Z,14.73
2022-12-20T18:14:45.602Z,14.90
2022-12-20T18:17:14.926Z,15.85
2022-12-20T18:19:43.929Z,16.20
2022-12-20T18:22:12.172Z,15.75
2022-12-20T18:24:40.173Z,13.77
2022-12-20T18:27:08.140Z,14.10
2022-12-20T18:29:36.131Z,13.77
2022-12-20T18:32:04.460Z,15.45
2022-12-20T18:34:33.960Z,13.57
2022-12-20T18:37:05.521Z,14.43
2022-12-20T18:39:33.690Z,17.05
2022-12-20T18:42:01.776Z,19.80
2022-12-20T18:44:29.875Z,17.50
2022-12-20T18:46:58.025Z,23.02
2022-12-20T18:49:26.077Z,16.17
2022-12-20T18:51:55.467Z,19.90
2022-12-20T18:54:23.480Z,20.98
2022-12-20T18:56:51.640Z,19.63
2022-12-20T18:59:21.236Z,18.90
2022-12-20T19:01:49.963Z,18.88
2022-12-20T19:04:24.030Z,18.27
2022-12-20T19:06:52.763Z,17.25
2022-12-20T19:09:22.216Z,15.70
2022-12-20T19:11:56.354Z,14.25
2022-12-20T19:14:25.302Z,19.10
2022-12-20T19:16:53.303Z,17.10
2022-12-20T19:19:21.481Z,15.90
2022-12-20T19:21:49.451Z,12.63
2022-12-20T19:24:17.382Z,16.48
2022-12-20T19:26:46.818Z,18.58
2022-12-20T19:29:14.736Z,18.00
2022-12-20T19:31:43.008Z,15.57
2022-12-20T19:34:13.568Z,18.30
2022-12-20T19:36:43.218Z,17.60
2022-12-20T19:39:15.552Z,18.13
2022-12-20T19:41:50.697Z,18.40
2022-12-20T19:44:29.452Z,17.38
2022-12-20T19:46:57.599Z,17.70
2022-12-20T19:49:25.607Z,17.60
2022-12-20T19:51:53.619Z,17.83
2022-12-20T19:54:21.948Z,17.90
2022-12-20T19:56:49.968Z,19.67
2022-12-20T19:59:17.967Z,19.45
2022-12-20T20:01:47.426Z,18.80
2022-12-20T20:04:15.473Z,18.90
2022-12-20T20:06:43.458Z,18.55
2022-12-20T20:09:11.621Z,20.60
2022-12-20T20:11:39.667Z,18.70
2022-12-20T20:14:09.503Z,21.45
2022-12-20T20:16:37.596Z,22.77
2022-12-20T20:19:07.184Z,21.50
2022-12-20T20:21:37.806Z,21.02
2022-12-20T20:24:08.183Z,24.30
2022-12-20T20:26:36.515Z,23.70
2022-12-20T20:29:06.187Z,22.23
2022-12-20T20:31:34.221Z,22.98
2022-12-20T20:34:02.228Z,22.85
2022-12-20T20:36:31.592Z,21.80
2022-12-20T20:38:59.545Z,23.40
2022-12-20T20:41:27.493Z,21.70
2022-12-20T20:43:55.548Z,21.50
2022-12-20T20:46:23.784Z,21.95
2022-12-20T20:48:51.795Z,23.15
2022-12-20T20:51:19.730Z,22.80
2022-12-20T20:53:49.033Z,23.73
2022-12-20T20:56:17.381Z,22.58
2022-12-20T20:58:46.584Z,23.90
2022-12-20T21:01:15.154Z,22.33
2022-12-20T21:03:43.238Z,22.73
2022-12-20T21:09:01.803Z,23.17
2022-12-20T21:11:30.031Z,21.08
2022-12-20T21:13:58.181Z,23.90
2022-12-20T21:16:26.574Z,24.90
2022-12-20T21:18:55.549Z,23.38
2022-12-20T21:21:24.791Z,24.17
2022-12-20T21:23:55.779Z,24.52
2022-12-20T21:26:26.129Z,23.27
2022-12-20T21:28:57.902Z,21.67
2022-12-20T21:31:26.017Z,22.50
2022-12-20T21:33:54.134Z,21.95
2022-12-20T21:36:22.175Z,21.00
2022-12-20T21:38:51.169Z,21.10
2022-12-20T21:41:20.508Z,20.55
2022-12-20T21:43:49.894Z,21.03
2022-12-20T21:46:18.064Z,21.45
2022-12-20T21:48:46.967Z,20.88
2022-12-20T21:51:16.866Z,21.75
2022-12-20T21:53:46.208Z,20.27
2022-12-20T21:56:15.770Z,19.83
2022-12-20T21:58:44.226Z,19.02
2022-12-20T22:01:15.550Z,20.33
2022-12-20T22:03:44.419Z,19.90
2022-12-20T22:06:12.921Z,18.90
2022-12-20T22:08:40.900Z,19.27
2022-12-20T22:11:11.261Z,19.15
2022-12-20T22:13:41.792Z,18.58
2022-12-20T22:16:10.972Z,18.05
2022-12-20T22:18:41.036Z,18.17
2022-12-20T22:21:11.002Z,18.88
2022-12-20T22:23:39.334Z,16.85
2022-12-20T22:26:09.622Z,17.00
2022-12-20T22:28:38.110Z,18.27
2022-12-20T22:31:08.878Z,18.13
2022-12-20T22:33:37.565Z,16.10
2022-12-20T22:36:08.477Z,16.85
2022-12-20T22:38:36.567Z,16.58
2022-12-20T22:41:09.633Z,16.95
2022-12-20T22:43:38.521Z,16.77
2022-12-20T22:46:06.822Z,15.75
2022-12-20T22:48:34.860Z,14.98
2022-12-20T22:51:04.516Z,16.00
2022-12-20T22:53:35.671Z,17.13
2022-12-20T22:56:04.898Z,15.50
2022-12-20T22:58:33.375Z,16.45
2022-12-20T23:01:02.905Z,15.20
2022-12-20T23:03:31.813Z,15.70
2022-12-20T23:06:01.762Z,14.38
2022-12-20T23:08:32.203Z,14.82
2022-12-20T23:11:19.777Z,13.40
2022-12-20T23:14:05.240Z,13.25
2022-12-20T23:16:33.529Z,12.50
2022-12-20T23:19:02.815Z,13.02
2022-12-20T23:21:48.804Z,12.40
2022-12-20T23:24:17.075Z,11.80
2022-12-20T23:26:46.360Z,11.20
2022-12-20T23:29:14.509Z,10.82
2022-12-20T23:31:42.617Z,10.80
2022-12-20T23:34:10.621Z,10.00
2022-12-20T23:36:38.940Z,9.77
2022-12-20T23:39:07.569Z,8.37
2022-12-20T23:41:35.573Z,8.98
2022-12-20T23:44:06.329Z,7.78
2022-12-20T23:46:34.884Z,8.40
2022-12-20T23:49:02.821Z,7.40
2022-12-20T23:51:30.860Z,7.88
2022-12-20T23:53:58.804Z,6.80
2022-12-20T23:56:26.731Z,6.80
2022-12-20T23:58:55.812Z,6.57
